Armony — 5IM517 — position and weather

sailwx.info

Track history (hours):
 
Tides and Currents Weather Stations Pressure Air Temp Water Temp Dewpoint Dewpoint Depression Visibility Wind Speed Wind Dir Waves Ship Positions

Armony

Last reported at 2014-Jul-19 05:24 UTC. Time now 2014-Jul-23 01:15 UTC.
Position N 46°21' E 030°55'.

Length 70 m; draft 4.8 m.

Type: Cargo ship. MMSI: 677041700.

Date/timePositionNaut miles runAvg speedWind from/ knotsBaromVisibWave heightAir tempDewpointWater temp
2014-Jul-19 05:24N 46°21' E 030°55'6 7.3
2014-Jul-19 04:32N 46°27' E 030°55'25 6.1
2014-Jul-19 00:29N 46°36' E 031°29'7 7.1
2014-Jul-18 23:27N 46°36' E 031°40'7 7.7
2014-Jul-18 22:32N 46°36' E 031°50'7 6.9
2014-Jul-18 21:33N 46°42' E 031°56'7 6.8
2014-Jul-18 20:33N 46°48' E 031°53'7 7.2
2014-Jul-18 19:33N 46°54' E 032°00'3 3.0
2014-Jul-18 18:33N 46°57' E 032°01'0 0.0
2014-Jul-18 17:34N 46°57' E 032°01'0 0.0
2014-Jul-18 16:33N 46°57' E 032°01'0 0.0
2014-Jul-18 15:33N 46°57' E 032°01'0 0.0
2014-Jul-18 14:33N 46°57' E 032°01'0 0.0
2014-Jul-18 13:34N 46°57' E 032°01'0 0.0
2014-Jul-18 12:33N 46°57' E 032°01'0 0.0
2014-Jul-18 11:34N 46°57' E 032°01'0 0.0
2014-Jul-18 10:33N 46°57' E 032°01'0 0.0
2014-Jul-18 09:33N 46°57' E 032°01'0 0.0
2014-Jul-18 08:33N 46°57' E 032°01'0 0.0
2014-Jul-18 07:34N 46°57' E 032°01'0 0.0
2014-Jul-18 06:33N 46°57' E 032°01'0 0.0
2014-Jul-18 05:34N 46°57' E 032°01'0 0.0
2014-Jul-18 04:33N 46°57' E 032°01'0 0.0
2014-Jul-18 03:33N 46°57' E 032°01'0 0.0
2014-Jul-18 02:33N 46°57' E 032°01'0 0.0
2014-Jul-18 01:33N 46°57' E 032°01'0 0.0
2014-Jul-18 00:33N 46°57' E 032°01'0 0.0
2014-Jul-17 23:33N 46°57' E 032°01'0 0.0
2014-Jul-17 22:34N 46°57' E 032°01'0 0.0
2014-Jul-17 21:33N 46°57' E 032°01'0 0.0
2014-Jul-17 20:33N 46°57' E 032°01'0 0.0
2014-Jul-17 19:33N 46°57' E 032°01'0 0.0
2014-Jul-17 18:33N 46°57' E 032°01'0 0.0
2014-Jul-17 17:33N 46°57' E 032°01'0 0.0
2014-Jul-17 16:33N 46°57' E 032°01'0 0.0
2014-Jul-17 15:33N 46°57' E 032°01'0 0.0
2014-Jul-17 14:33N 46°57' E 032°01'0 0.0
2014-Jul-17 13:33N 46°57' E 032°01'0 0.0
2014-Jul-17 11:24N 46°57' E 032°01'0 0.0
2014-Jul-17 10:33N 46°57' E 032°01'0 0.0
2014-Jul-17 09:33N 46°57' E 032°01'0 0.0
2014-Jul-17 08:30N 46°57' E 032°01'0 0.0
2014-Jul-17 07:33N 46°57' E 032°01'0 0.0
2014-Jul-17 06:33N 46°57' E 032°01'0 0.0
2014-Jul-17 05:33N 46°57' E 032°01'0 0.0
2014-Jul-17 04:33N 46°57' E 032°01'0 0.0
2014-Jul-17 03:33N 46°57' E 032°01'0 0.0
2014-Jul-17 02:33N 46°57' E 032°01'0 0.0
2014-Jul-17 01:33N 46°57' E 032°01'0 0.0
2014-Jul-17 00:33N 46°57' E 032°01'0 0.0
2014-Jul-16 23:33N 46°57' E 032°01'0 0.0
2014-Jul-16 22:33N 46°57' E 032°01'0 0.0
2014-Jul-16 21:34N 46°57' E 032°01'0 0.0
2014-Jul-16 20:33N 46°57' E 032°01'0 0.0
2014-Jul-16 19:31N 46°57' E 032°01'0 0.0
2014-Jul-16 18:31N 46°57' E 032°01'0 0.0
2014-Jul-16 17:28N 46°57' E 032°01'0 0.0
2014-Jul-16 16:31N 46°57' E 032°01'0 0.0
2014-Jul-16 15:31N 46°57' E 032°01'0 0.0
2014-Jul-16 14:31N 46°57' E 032°01'0 0.0
2014-Jul-16 13:31N 46°57' E 032°01'0 0.0
2014-Jul-16 12:28N 46°57' E 032°01'0 0.0
2014-Jul-16 11:28N 46°57' E 032°01'0 0.0
2014-Jul-16 10:31N 46°57' E 032°01'0 0.0
2014-Jul-16 09:31N 46°57' E 032°01'0 0.0
2014-Jul-16 08:31N 46°57' E 032°01'0 0.0
2014-Jul-16 07:31N 46°57' E 032°01'0 0.0
2014-Jul-16 06:28N 46°57' E 032°01'0 0.0
2014-Jul-16 05:31N 46°57' E 032°01'0 0.0
2014-Jul-16 04:32N 46°57' E 032°01'0 0.0
2014-Jul-16 03:31N 46°57' E 032°01'0 0.0
2014-Jul-16 02:31N 46°57' E 032°01'0 0.0
2014-Jul-16 01:31N 46°57' E 032°01'0 0.0
2014-Jul-16 00:31N 46°57' E 032°01'0 0.0
2014-Jul-15 23:31N 46°57' E 032°01'0 0.0
2014-Jul-15 22:31N 46°57' E 032°01'0 0.0
2014-Jul-15 21:31N 46°57' E 032°01'0 0.0
2014-Jul-15 20:31N 46°57' E 032°01'0 0.0
2014-Jul-15 19:32N 46°57' E 032°01'0 0.0
2014-Jul-15 18:31N 46°57' E 032°01'0 0.0
2014-Jul-15 17:31N 46°57' E 032°01'0 0.0
2014-Jul-15 16:32N 46°57' E 032°01'0 0.0
2014-Jul-15 15:31N 46°57' E 032°01'0 0.0
2014-Jul-15 14:28N 46°57' E 032°01'0 0.0
2014-Jul-15 13:31N 46°57' E 032°01'0 0.0
2014-Jul-15 12:31N 46°57' E 032°01'0 0.0
2014-Jul-15 11:31N 46°57' E 032°01'0 0.0
2014-Jul-15 10:31N 46°57' E 032°01'0 0.0
2014-Jul-15 09:31N 46°57' E 032°01'0 0.0
2014-Jul-15 08:31N 46°57' E 032°01'0 0.0
2014-Jul-15 07:31N 46°57' E 032°01'0 0.1
2014-Jul-15 06:31N 46°57' E 032°01'0 0.0
2014-Jul-15 05:31N 46°57' E 032°01'0 0.0
2014-Jul-15 04:31N 46°57' E 032°01'0 0.0
2014-Jul-15 03:28N 46°57' E 032°01'0 0.0
2014-Jul-15 02:31N 46°57' E 032°01'0 0.0
2014-Jul-15 01:31N 46°57' E 032°01'0 0.0
2014-Jul-15 00:31N 46°57' E 032°01'0 0.0
2014-Jul-14 23:31N 46°57' E 032°01'0 0.0
2014-Jul-14 22:31N 46°57' E 032°01'0 0.0
2014-Jul-14 21:31N 46°57' E 032°01'0 0.0
2014-Jul-14 20:31N 46°57' E 032°01'0 0.0
2014-Jul-14 19:32N 46°57' E 032°01'0 0.0
2014-Jul-14 18:31N 46°57' E 032°01'3 2.7
2014-Jul-14 17:33N 46°54' E 032°01'8 7.6
2014-Jul-14 16:33N 46°48' E 031°53'7 7.1
2014-Jul-14 15:33N 46°41' E 031°56'7 7.0
2014-Jul-14 14:33N 46°36' E 031°49'8 7.7
2014-Jul-14 13:32N 46°35' E 031°38'7 6.9
2014-Jul-14 12:33N 46°35' E 031°28'21 1.3
2014-Jul-13 20:32N 46°22' E 031°04'0 0.1
2014-Jul-13 19:32N 46°22' E 031°04'0 0.0
2014-Jul-13 18:32N 46°22' E 031°04'0 0.0
2014-Jul-13 17:32N 46°22' E 031°04'0 0.0
2014-Jul-13 16:20N 46°22' E 031°04'0 0.0
2014-Jul-13 15:32N 46°22' E 031°04'0 0.0
2014-Jul-13 00:20N 46°22' E 031°04'0 0.0
2014-Jul-12 23:23N 46°22' E 031°04'0 0.0
2014-Jul-12 22:26N 46°22' E 031°04'0 0.0
2014-Jul-12 20:08N 46°22' E 031°04'0 0.0
2014-Jul-12 19:32N 46°22' E 031°04'0 0.0
2014-Jul-12 18:11N 46°22' E 031°04'0 0.0
2014-Jul-12 13:32N 46°22' E 031°04'0 0.0
2014-Jul-12 12:32N 46°22' E 031°04'0 0.0
2014-Jul-11 04:08N 46°22' E 031°04'0 0.0
2014-Jul-11 03:32N 46°22' E 031°04'0 0.0
2014-Jul-11 02:29N 46°22' E 031°04'0 0.0
2014-Jul-11 01:32N 46°22' E 031°04'0 0.0
2014-Jul-11 00:32N 46°22' E 031°04'0 0.0
2014-Jul-10 23:29N 46°22' E 031°04'0 0.0
2014-Jul-10 22:32N 46°22' E 031°04'0 0.0
2014-Jul-10 21:32N 46°22' E 031°04'0 0.0
2014-Jul-10 20:29N 46°22' E 031°04'0 0.0
2014-Jul-10 19:32N 46°22' E 031°04'0 0.0
2014-Jul-10 18:32N 46°22' E 031°04'0 0.0
2014-Jul-10 07:09N 46°22' E 031°04'5 7.8
2014-Jul-10 06:33N 46°18' E 031°00'9 8.8
2014-Jul-10 05:33N 46°10' E 030°54'9 8.6
2014-Jul-10 04:33N 46°03' E 030°48'8 8.2
2014-Jul-10 03:33N 45°55' E 030°43'9 7.7
2014-Jul-10 02:20N 45°47' E 030°37'1 0.8
2014-Jul-10 01:33N 45°46' E 030°37'6 5.0
2014-Jul-10 00:25N 45°41' E 030°34'7 8.1
2014-Jul-09 23:33N 45°34' E 030°30'8 7.9
2014-Jul-09 22:33N 45°27' E 030°26'8 8.2
2014-Jul-09 21:33N 45°19' E 030°22'8 8.3
2014-Jul-09 20:33N 45°12' E 030°17'9 8.4
2014-Jul-09 19:32N 45°04' E 030°12'  
Track history (hours):
 
Tides and Currents Weather Stations Pressure Air Temp Water Temp Dewpoint Dewpoint Depression Visibility Wind Speed Wind Dir Waves Ship Positions

Armony

Last reported at 2014-Jul-19 05:24 UTC. Time now 2014-Jul-23 01:15 UTC.
Position N 46°21' E 030°55'.

Length 70 m; draft 4.8 m.

Type: Cargo ship. MMSI: 677041700.

Date/timePositionNaut miles runAvg speedWind from/ knotsBaromVisibWave heightAir tempDewpointWater temp
2014-Jul-19 05:24N 46°21' E 030°55'6 7.3
2014-Jul-19 04:32N 46°27' E 030°55'25 6.1
2014-Jul-19 00:29N 46°36' E 031°29'7 7.1
2014-Jul-18 23:27N 46°36' E 031°40'7 7.7
2014-Jul-18 22:32N 46°36' E 031°50'7 6.9
2014-Jul-18 21:33N 46°42' E 031°56'7 6.8
2014-Jul-18 20:33N 46°48' E 031°53'7 7.2
2014-Jul-18 19:33N 46°54' E 032°00'3 3.0
2014-Jul-18 18:33N 46°57' E 032°01'0 0.0
2014-Jul-18 17:34N 46°57' E 032°01'0 0.0
2014-Jul-18 16:33N 46°57' E 032°01'0 0.0
2014-Jul-18 15:33N 46°57' E 032°01'0 0.0
2014-Jul-18 14:33N 46°57' E 032°01'0 0.0
2014-Jul-18 13:34N 46°57' E 032°01'0 0.0
2014-Jul-18 12:33N 46°57' E 032°01'0 0.0
2014-Jul-18 11:34N 46°57' E 032°01'0 0.0
2014-Jul-18 10:33N 46°57' E 032°01'0 0.0
2014-Jul-18 09:33N 46°57' E 032°01'0 0.0
2014-Jul-18 08:33N 46°57' E 032°01'0 0.0
2014-Jul-18 07:34N 46°57' E 032°01'0 0.0
2014-Jul-18 06:33N 46°57' E 032°01'0 0.0
2014-Jul-18 05:34N 46°57' E 032°01'0 0.0
2014-Jul-18 04:33N 46°57' E 032°01'0 0.0
2014-Jul-18 03:33N 46°57' E 032°01'0 0.0
2014-Jul-18 02:33N 46°57' E 032°01'0 0.0
2014-Jul-18 01:33N 46°57' E 032°01'0 0.0
2014-Jul-18 00:33N 46°57' E 032°01'0 0.0
2014-Jul-17 23:33N 46°57' E 032°01'0 0.0
2014-Jul-17 22:34N 46°57' E 032°01'0 0.0
2014-Jul-17 21:33N 46°57' E 032°01'0 0.0
2014-Jul-17 20:33N 46°57' E 032°01'0 0.0
2014-Jul-17 19:33N 46°57' E 032°01'0 0.0
2014-Jul-17 18:33N 46°57' E 032°01'0 0.0
2014-Jul-17 17:33N 46°57' E 032°01'0 0.0
2014-Jul-17 16:33N 46°57' E 032°01'0 0.0
2014-Jul-17 15:33N 46°57' E 032°01'0 0.0
2014-Jul-17 14:33N 46°57' E 032°01'0 0.0
2014-Jul-17 13:33N 46°57' E 032°01'0 0.0
2014-Jul-17 11:24N 46°57' E 032°01'0 0.0
2014-Jul-17 10:33N 46°57' E 032°01'0 0.0
2014-Jul-17 09:33N 46°57' E 032°01'0 0.0
2014-Jul-17 08:30N 46°57' E 032°01'0 0.0
2014-Jul-17 07:33N 46°57' E 032°01'0 0.0
2014-Jul-17 06:33N 46°57' E 032°01'0 0.0
2014-Jul-17 05:33N 46°57' E 032°01'0 0.0
2014-Jul-17 04:33N 46°57' E 032°01'0 0.0
2014-Jul-17 03:33N 46°57' E 032°01'0 0.0
2014-Jul-17 02:33N 46°57' E 032°01'0 0.0
2014-Jul-17 01:33N 46°57' E 032°01'0 0.0
2014-Jul-17 00:33N 46°57' E 032°01'0 0.0
2014-Jul-16 23:33N 46°57' E 032°01'0 0.0
2014-Jul-16 22:33N 46°57' E 032°01'0 0.0
2014-Jul-16 21:34N 46°57' E 032°01'0 0.0
2014-Jul-16 20:33N 46°57' E 032°01'0 0.0
2014-Jul-16 19:31N 46°57' E 032°01'0 0.0
2014-Jul-16 18:31N 46°57' E 032°01'0 0.0
2014-Jul-16 17:28N 46°57' E 032°01'0 0.0
2014-Jul-16 16:31N 46°57' E 032°01'0 0.0
2014-Jul-16 15:31N 46°57' E 032°01'0 0.0
2014-Jul-16 14:31N 46°57' E 032°01'0 0.0
2014-Jul-16 13:31N 46°57' E 032°01'0 0.0
2014-Jul-16 12:28N 46°57' E 032°01'0 0.0
2014-Jul-16 11:28N 46°57' E 032°01'0 0.0
2014-Jul-16 10:31N 46°57' E 032°01'0 0.0
2014-Jul-16 09:31N 46°57' E 032°01'0 0.0
2014-Jul-16 08:31N 46°57' E 032°01'0 0.0
2014-Jul-16 07:31N 46°57' E 032°01'0 0.0
2014-Jul-16 06:28N 46°57' E 032°01'0 0.0
2014-Jul-16 05:31N 46°57' E 032°01'0 0.0
2014-Jul-16 04:32N 46°57' E 032°01'0 0.0
2014-Jul-16 03:31N 46°57' E 032°01'0 0.0
2014-Jul-16 02:31N 46°57' E 032°01'0 0.0
2014-Jul-16 01:31N 46°57' E 032°01'0 0.0
2014-Jul-16 00:31N 46°57' E 032°01'0 0.0
2014-Jul-15 23:31N 46°57' E 032°01'0 0.0
2014-Jul-15 22:31N 46°57' E 032°01'0 0.0
2014-Jul-15 21:31N 46°57' E 032°01'0 0.0
2014-Jul-15 20:31N 46°57' E 032°01'0 0.0
2014-Jul-15 19:32N 46°57' E 032°01'0 0.0
2014-Jul-15 18:31N 46°57' E 032°01'0 0.0
2014-Jul-15 17:31N 46°57' E 032°01'0 0.0
2014-Jul-15 16:32N 46°57' E 032°01'0 0.0
2014-Jul-15 15:31N 46°57' E 032°01'0 0.0
2014-Jul-15 14:28N 46°57' E 032°01'0 0.0
2014-Jul-15 13:31N 46°57' E 032°01'0 0.0
2014-Jul-15 12:31N 46°57' E 032°01'0 0.0
2014-Jul-15 11:31N 46°57' E 032°01'0 0.0
2014-Jul-15 10:31N 46°57' E 032°01'0 0.0
2014-Jul-15 09:31N 46°57' E 032°01'0 0.0
2014-Jul-15 08:31N 46°57' E 032°01'0 0.0
2014-Jul-15 07:31N 46°57' E 032°01'0 0.1
2014-Jul-15 06:31N 46°57' E 032°01'0 0.0
2014-Jul-15 05:31N 46°57' E 032°01'0 0.0
2014-Jul-15 04:31N 46°57' E 032°01'0 0.0
2014-Jul-15 03:28N 46°57' E 032°01'0 0.0
2014-Jul-15 02:31N 46°57' E 032°01'0 0.0
2014-Jul-15 01:31N 46°57' E 032°01'0 0.0
2014-Jul-15 00:31N 46°57' E 032°01'0 0.0
2014-Jul-14 23:31N 46°57' E 032°01'0 0.0
2014-Jul-14 22:31N 46°57' E 032°01'0 0.0
2014-Jul-14 21:31N 46°57' E 032°01'0 0.0
2014-Jul-14 20:31N 46°57' E 032°01'0 0.0
2014-Jul-14 19:32N 46°57' E 032°01'0 0.0
2014-Jul-14 18:31N 46°57' E 032°01'3 2.7
2014-Jul-14 17:33N 46°54' E 032°01'8 7.6
2014-Jul-14 16:33N 46°48' E 031°53'7 7.1
2014-Jul-14 15:33N 46°41' E 031°56'7 7.0
2014-Jul-14 14:33N 46°36' E 031°49'8 7.7
2014-Jul-14 13:32N 46°35' E 031°38'7 6.9
2014-Jul-14 12:33N 46°35' E 031°28'21 1.3
2014-Jul-13 20:32N 46°22' E 031°04'0 0.1
2014-Jul-13 19:32N 46°22' E 031°04'0 0.0
2014-Jul-13 18:32N 46°22' E 031°04'0 0.0
2014-Jul-13 17:32N 46°22' E 031°04'0 0.0
2014-Jul-13 16:20N 46°22' E 031°04'0 0.0
2014-Jul-13 15:32N 46°22' E 031°04'0 0.0
2014-Jul-13 00:20N 46°22' E 031°04'0 0.0
2014-Jul-12 23:23N 46°22' E 031°04'0 0.0
2014-Jul-12 22:26N 46°22' E 031°04'0 0.0
2014-Jul-12 20:08N 46°22' E 031°04'0 0.0
2014-Jul-12 19:32N 46°22' E 031°04'0 0.0
2014-Jul-12 18:11N 46°22' E 031°04'0 0.0
2014-Jul-12 13:32N 46°22' E 031°04'0 0.0
2014-Jul-12 12:32N 46°22' E 031°04'0 0.0
2014-Jul-11 04:08N 46°22' E 031°04'0 0.0
2014-Jul-11 03:32N 46°22' E 031°04'0 0.0
2014-Jul-11 02:29N 46°22' E 031°04'0 0.0
2014-Jul-11 01:32N 46°22' E 031°04'0 0.0
2014-Jul-11 00:32N 46°22' E 031°04'0 0.0
2014-Jul-10 23:29N 46°22' E 031°04'0 0.0
2014-Jul-10 22:32N 46°22' E 031°04'0 0.0
2014-Jul-10 21:32N 46°22' E 031°04'0 0.0
2014-Jul-10 20:29N 46°22' E 031°04'0 0.0
2014-Jul-10 19:32N 46°22' E 031°04'0 0.0
2014-Jul-10 18:32N 46°22' E 031°04'0 0.0
2014-Jul-10 07:09N 46°22' E 031°04'5 7.8
2014-Jul-10 06:33N 46°18' E 031°00'9 8.8
2014-Jul-10 05:33N 46°10' E 030°54'9 8.6
2014-Jul-10 04:33N 46°03' E 030°48'8 8.2
2014-Jul-10 03:33N 45°55' E 030°43'9 7.7
2014-Jul-10 02:20N 45°47' E 030°37'1 0.8
2014-Jul-10 01:33N 45°46' E 030°37'6 5.0
2014-Jul-10 00:25N 45°41' E 030°34'7 8.1
2014-Jul-09 23:33N 45°34' E 030°30'8 7.9
2014-Jul-09 22:33N 45°27' E 030°26'8 8.2
2014-Jul-09 21:33N 45°19' E 030°22'8 8.3
2014-Jul-09 20:33N 45°12' E 030°17'9 8.4
2014-Jul-09 19:32N 45°04' E 030°12'  

Dump ship's entire track history